Time;durP1;ratioP1;P1;durP2;ratioP2;P2;SDS_P1;SDS_P2;PMS_P1;PMS_P2;Temp;Humidity;BMP_temperature;BMP_pressure;BME280_temperature;BME280_humidity;BME280_pressure;Samples;Min_cycle;Max_cycle;Signal;HPM_P1;HPM_P2
2023/06/26 00:01:20;;;;;;;8.40;7.05;;;21.40;99.90;;;;;;6253239;22;19991;-77
2023/06/26 00:03:49;;;;;;;7.18;6.45;;;21.50;99.90;;;;;;6289243;22;20001;-77
2023/06/26 00:06:15;;;;;;;6.20;5.60;;;21.40;99.90;;;;;;6278823;22;20007;-78
2023/06/26 00:08:41;;;;;;;7.05;6.25;;;21.40;99.90;;;;;;6278700;22;20334;-77
2023/06/26 00:11:07;;;;;;;8.75;6.50;;;21.50;99.90;;;;;;6252925;22;20000;-77
2023/06/26 00:13:34;;;;;;;8.80;7.22;;;21.50;99.90;;;;;;6278813;22;20060;-77
2023/06/26 00:16:02;;;;;;;7.90;7.18;;;21.60;99.90;;;;;;6289229;22;20344;-76
2023/06/26 00:18:29;;;;;;;6.32;5.60;;;21.70;99.90;;;;;;6252848;22;20010;-77
2023/06/26 00:20:55;;;;;;;6.88;6.18;;;21.80;99.90;;;;;;6289107;22;20385;-76
2023/06/26 00:23:21;;;;;;;6.28;5.68;;;21.80;99.90;;;;;;6278650;22;20002;-77
2023/06/26 00:25:47;;;;;;;6.28;5.57;;;21.80;99.90;;;;;;6279076;22;20310;-76
2023/06/26 00:28:13;;;;;;;6.03;5.43;;;21.80;99.90;;;;;;6278411;22;20007;-77
2023/06/26 00:30:38;;;;;;;7.45;6.65;;;21.80;99.90;;;;;;6253318;22;20416;-77
2023/06/26 00:33:04;;;;;;;6.65;5.53;;;21.80;99.90;;;;;;6288986;22;20406;-77
2023/06/26 00:35:31;;;;;;;6.20;5.57;;;21.80;99.90;;;;;;6253692;22;20082;-77
2023/06/26 00:37:57;;;;;;;6.45;5.85;;;21.90;99.90;;;;;;6278365;22;20031;-78
2023/06/26 00:40:22;;;;;;;8.18;5.53;;;21.70;99.90;;;;;;6253301;22;20047;-78
2023/06/26 00:42:49;;;;;;;6.57;6.07;;;21.70;99.90;;;;;;6279097;22;20419;-76
2023/06/26 00:45:15;;;;;;;6.05;5.55;;;21.80;99.90;;;;;;6278559;22;20450;-77
2023/06/26 00:47:41;;;;;;;6.65;6.05;;;21.70;99.90;;;;;;6288733;22;19995;-77
2023/06/26 00:50:07;;;;;;;7.43;6.72;;;21.70;99.90;;;;;;6279188;22;20006;-77
2023/06/26 00:52:33;;;;;;;6.97;6.38;;;21.70;99.90;;;;;;6253125;22;20038;-76
2023/06/26 00:54:59;;;;;;;6.63;6.03;;;21.70;99.90;;;;;;6253416;22;20437;-76
2023/06/26 00:57:26;;;;;;;7.60;6.80;;;21.70;99.90;;;;;;6252842;22;20457;-76
2023/06/26 00:59:53;;;;;;;5.45;5.00;;;21.70;99.90;;;;;;6253194;22;20060;-76
2023/06/26 01:02:21;;;;;;;6.68;6.07;;;21.60;99.90;;;;;;6278785;22;20026;-77
2023/06/26 01:04:51;;;;;;;6.05;5.55;;;21.60;99.90;;;;;;6252936;22;20415;-77
2023/06/26 01:07:19;;;;;;;7.18;6.47;;;21.60;99.90;;;;;;6278329;22;20003;-77
2023/06/26 01:09:48;;;;;;;7.65;6.00;;;21.50;99.90;;;;;;6288889;22;20442;-77
2023/06/26 01:12:15;;;;;;;6.72;6.13;;;21.50;99.90;;;;;;6252666;22;20003;-76
2023/06/26 01:14:41;;;;;;;6.88;6.25;;;21.50;99.90;;;;;;6277949;22;19999;-77
2023/06/26 01:17:11;;;;;;;6.13;5.60;;;21.40;99.90;;;;;;6253493;22;20027;-77
2023/06/26 01:19:38;;;;;;;6.28;5.78;;;21.40;99.90;;;;;;6280413;22;20019;-77
2023/06/26 01:22:15;;;;;;;7.03;5.60;;;21.40;99.90;;;;;;6280016;22;20125;-76
2023/06/26 01:25:12;;;;;;;5.93;5.43;;;21.40;99.90;;;;;;6280596;22;20010;-77
2023/06/26 01:27:38;;;;;;;6.65;5.63;;;21.40;99.90;;;;;;6317967;22;20012;-77
2023/06/26 01:30:05;;;;;;;5.95;5.32;;;21.50;99.90;;;;;;6255056;22;20006;-77
2023/06/26 01:32:32;;;;;;;6.90;6.18;;;21.40;99.90;;;;;;6280442;22;20000;-77
2023/06/26 01:34:59;;;;;;;5.38;4.60;;;21.50;99.90;;;;;;6254562;22;20045;-78
2023/06/26 01:37:28;;;;;;;5.60;5.10;;;21.50;99.90;;;;;;6280300;22;20026;-77
2023/06/26 01:39:54;;;;;;;6.03;5.47;;;21.50;99.90;;;;;;6280297;22;20307;-77
2023/06/26 01:42:20;;;;;;;6.32;5.72;;;21.40;99.90;;;;;;6282417;22;20003;-76
2023/06/26 01:44:47;;;;;;;6.22;4.75;;;21.40;99.90;;;;;;6318298;22;20007;-77
2023/06/26 01:47:18;;;;;;;4.65;4.22;;;21.40;99.90;;;;;;6317795;22;19999;-76
2023/06/26 01:50:01;;;;;;;5.05;4.60;;;21.40;99.90;;;;;;6254720;22;19999;-76
2023/06/26 01:52:42;;;;;;;5.70;4.93;;;21.40;99.90;;;;;;6280633;22;20000;-77
2023/06/26 01:55:21;;;;;;;5.70;4.47;;;21.40;99.90;;;;;;6280172;22;19996;-77
2023/06/26 01:57:50;;;;;;;5.47;4.83;;;21.40;99.90;;;;;;6280657;22;20064;-77
2023/06/26 02:00:19;;;;;;;4.63;4.22;;;21.30;99.90;;;;;;6280233;22;20257;-76
2023/06/26 02:02:45;;;;;;;5.28;4.10;;;21.40;99.90;;;;;;6318164;22;20025;-77
2023/06/26 02:05:13;;;;;;;4.40;4.03;;;21.30;99.90;;;;;;6255484;22;20010;-77
2023/06/26 02:07:40;;;;;;;7.10;4.47;;;21.30;99.90;;;;;;6280090;22;20022;-77
2023/06/26 02:10:06;;;;;;;5.13;4.20;;;21.30;99.90;;;;;;6254669;22;20084;-77
2023/06/26 02:12:33;;;;;;;5.63;3.88;;;21.30;99.90;;;;;;6281591;22;20004;-76
2023/06/26 02:14:59;;;;;;;7.10;3.78;;;21.30;99.90;;;;;;6254653;22;20082;-77
2023/06/26 02:17:25;;;;;;;4.28;3.63;;;21.20;99.90;;;;;;6279939;22;20440;-77
2023/06/26 02:19:54;;;;;;;5.03;4.50;;;21.10;99.90;;;;;;6281081;22;20057;-77
2023/06/26 02:22:20;;;;;;;4.00;3.50;;;21.10;99.90;;;;;;6279334;22;19999;-77
2023/06/26 02:24:47;;;;;;;3.90;3.60;;;21.00;99.90;;;;;;6279825;22;20364;-77
2023/06/26 02:27:13;;;;;;;7.60;4.45;;;21.00;99.90;;;;;;6289918;22;20049;-76
2023/06/26 02:29:40;;;;;;;10.02;4.80;;;21.00;99.90;;;;;;6317619;22;20006;-77
2023/06/26 02:32:08;;;;;;;6.22;4.45;;;21.00;99.90;;;;;;6254867;22;20083;-76
2023/06/26 02:34:35;;;;;;;5.40;3.65;;;20.90;99.90;;;;;;6254436;22;20070;-76
2023/06/26 02:37:01;;;;;;;3.28;2.97;;;20.90;99.90;;;;;;6279913;22;20010;-76
2023/06/26 02:39:28;;;;;;;4.07;3.78;;;20.80;99.90;;;;;;6279916;22;20011;-77
2023/06/26 02:41:54;;;;;;;4.35;3.30;;;20.90;99.90;;;;;;6284025;22;20078;-76
2023/06/26 02:44:22;;;;;;;7.60;3.25;;;20.80;99.90;;;;;;6254769;22;20005;-76
2023/06/26 02:46:48;;;;;;;4.03;3.70;;;20.80;99.90;;;;;;6253518;22;20049;-76
2023/06/26 02:49:14;;;;;;;3.53;3.10;;;20.70;99.90;;;;;;6254534;22;19995;-76
2023/06/26 02:51:40;;;;;;;6.03;3.92;;;20.60;99.90;;;;;;6279985;22;20064;-76
2023/06/26 02:54:14;;;;;;;4.40;3.45;;;20.50;99.90;;;;;;6279952;22;20053;-76
2023/06/26 02:56:42;;;;;;;5.22;3.78;;;20.60;99.90;;;;;;6279546;22;20040;-75
2023/06/26 02:59:08;;;;;;;4.32;3.35;;;20.50;99.90;;;;;;6254717;22;20069;-76
2023/06/26 03:01:34;;;;;;;4.20;3.38;;;20.50;99.90;;;;;;6279703;22;19999;-76
2023/06/26 03:04:00;;;;;;;8.52;4.65;;;20.50;99.90;;;;;;6254352;22;20002;-77
2023/06/26 03:06:27;;;;;;;5.03;3.63;;;20.60;99.90;;;;;;6279752;22;20003;-76
2023/06/26 03:08:53;;;;;;;4.20;3.55;;;20.50;99.90;;;;;;6279665;22;20448;-77
2023/06/26 03:11:19;;;;;;;5.15;3.55;;;20.50;99.90;;;;;;6279111;22;20012;-75
2023/06/26 03:13:45;;;;;;;4.45;3.75;;;20.50;99.90;;;;;;6279658;22;20003;-77
2023/06/26 03:16:12;;;;;;;4.60;4.10;;;20.60;99.90;;;;;;6278718;22;20000;-75
2023/06/26 03:18:38;;;;;;;4.25;3.75;;;20.60;99.90;;;;;;6252870;22;20034;-75
2023/06/26 03:21:05;;;;;;;4.53;4.10;;;20.60;99.90;;;;;;6279563;22;20003;-76
2023/06/26 03:23:31;;;;;;;3.30;3.00;;;20.60;99.90;;;;;;6278941;22;20330;-75
2023/06/26 03:25:57;;;;;;;3.72;3.42;;;20.60;99.90;;;;;;6279335;22;20021;-76
2023/06/26 03:28:28;;;;;;;4.13;3.60;;;20.60;99.90;;;;;;6254741;22;19999;-76
2023/06/26 03:30:54;;;;;;;4.22;3.58;;;20.60;99.90;;;;;;6253865;22;20000;-76
2023/06/26 03:33:20;;;;;;;3.83;3.33;;;20.50;99.90;;;;;;6253746;22;20086;-77
2023/06/26 03:35:46;;;;;;;8.15;3.85;;;20.50;99.90;;;;;;6279247;22;20003;-76
2023/06/26 03:38:13;;;;;;;3.85;3.45;;;20.50;99.90;;;;;;6290184;22;19995;-76
2023/06/26 03:40:41;;;;;;;4.15;3.53;;;20.50;99.90;;;;;;6253439;22;20012;-77
2023/06/26 03:43:07;;;;;;;18.70;3.83;;;20.50;99.90;;;;;;6227369;22;20003;-77
2023/06/26 03:45:47;;;;;;;5.72;3.28;;;20.50;99.90;;;;;;6248701;22;20496;-77
2023/06/26 03:48:13;;;;;;;4.55;3.95;;;20.50;99.90;;;;;;6223204;22;20015;-76
2023/06/26 03:50:39;;;;;;;8.40;5.38;;;20.40;99.90;;;;;;6286126;22;20042;-75
2023/06/26 03:53:05;;;;;;;4.28;3.90;;;20.30;99.90;;;;;;6248054;22;20004;-77
2023/06/26 03:55:31;;;;;;;3.88;3.28;;;20.30;99.90;;;;;;6223354;22;19996;-76
2023/06/26 03:57:57;;;;;;;5.75;3.70;;;20.20;99.90;;;;;;6248507;22;20031;-76
2023/06/26 04:00:23;;;;;;;4.38;3.13;;;20.20;99.90;;;;;;6223517;22;20330;-76
2023/06/26 04:02:51;;;;;;;3.50;3.20;;;20.20;99.90;;;;;;6223039;22;20019;-76
2023/06/26 04:05:17;;;;;;;5.22;4.72;;;20.10;99.90;;;;;;6248466;22;19995;-76
2023/06/26 04:07:42;;;;;;;6.18;3.47;;;20.10;99.90;;;;;;6248099;22;20022;-76
2023/06/26 04:10:09;;;;;;;6.60;4.13;;;20.00;99.90;;;;;;6247853;22;20458;-77
2023/06/26 04:12:35;;;;;;;7.63;3.33;;;20.00;99.90;;;;;;6222322;22;20031;-76
2023/06/26 04:15:00;;;;;;;4.15;3.75;;;19.90;99.90;;;;;;6285471;22;19999;-76
2023/06/26 04:17:26;;;;;;;4.70;3.47;;;19.90;99.90;;;;;;6247628;22;19999;-75
2023/06/26 04:19:52;;;;;;;6.00;3.58;;;20.00;99.90;;;;;;6258542;22;20004;-76
2023/06/26 04:22:18;;;;;;;5.72;4.45;;;20.30;99.90;;;;;;6283451;22;20008;-76
2023/06/26 04:24:45;;;;;;;3.63;3.33;;;20.60;99.90;;;;;;6248527;22;20427;-76
2023/06/26 04:27:13;;;;;;;4.80;3.28;;;20.80;99.90;;;;;;6285317;22;20004;-75
2023/06/26 04:29:39;;;;;;;4.10;3.38;;;21.10;99.90;;;;;;6285286;22;19996;-76
2023/06/26 04:32:06;;;;;;;4.93;3.05;;;21.50;99.90;;;;;;6283517;22;20502;-76
2023/06/26 04:34:33;;;;;;;6.22;4.13;;;21.90;99.90;;;;;;6246931;22;19996;-78
2023/06/26 04:36:59;;;;;;;6.25;3.88;;;22.30;99.90;;;;;;6220453;22;20331;-78
2023/06/26 04:39:25;;;;;;;4.80;4.20;;;22.60;99.90;;;;;;6246895;22;20102;-78
2023/06/26 04:41:51;;;;;;;8.30;4.35;;;22.70;99.90;;;;;;6252345;22;20008;-77
2023/06/26 04:44:17;;;;;;;5.05;3.33;;;22.80;99.90;;;;;;6222180;22;20007;-77
2023/06/26 04:46:43;;;;;;;7.68;4.47;;;23.30;99.90;;;;;;6247242;22;20097;-78
2023/06/26 04:49:09;;;;;;;4.65;3.92;;;23.40;99.90;;;;;;6247185;22;20004;-78
2023/06/26 04:51:40;;;;;;;6.85;4.53;;;23.60;99.90;;;;;;6247211;22;20209;-75
2023/06/26 04:54:10;;;;;;;6.65;3.58;;;24.10;99.90;;;;;;6249014;22;20007;-77
2023/06/26 04:56:36;;;;;;;9.18;3.90;;;24.50;99.90;;;;;;6249633;22;20074;-77
2023/06/26 04:59:02;;;;;;;7.15;3.70;;;25.00;99.90;;;;;;6248421;22;20042;-77
2023/06/26 05:01:29;;;;;;;4.72;3.38;;;25.40;99.90;;;;;;6285371;22;20061;-76
2023/06/26 05:04:02;;;;;;;4.55;4.10;;;25.20;99.90;;;;;;6224675;22;20000;-77
2023/06/26 05:06:28;;;;;;;5.60;3.15;;;24.40;99.90;;;;;;6256504;22;20035;-76
2023/06/26 05:08:53;;;;;;;5.97;4.47;;;24.20;99.90;;;;;;6256624;22;20000;-76
2023/06/26 05:11:19;;;;;;;4.32;3.60;;;24.70;99.90;;;;;;6255412;22;20049;-77
2023/06/26 05:13:45;;;;;;;8.23;4.15;;;25.50;99.90;;;;;;6249185;22;20383;-77
2023/06/26 05:16:11;;;;;;;10.30;4.50;;;26.30;99.90;;;;;;6259687;22;20525;-77
2023/06/26 05:18:37;;;;;;;4.55;4.15;;;27.10;99.90;;;;;;6223861;22;20008;-76
2023/06/26 05:21:03;;;;;;;10.73;4.00;;;28.00;99.00;;;;;;6249470;22;20046;-77
2023/06/26 05:23:34;;;;;;;10.43;4.55;;;27.80;98.30;;;;;;6249458;22;20427;-78
2023/06/26 05:26:01;;;;;;;5.50;3.50;;;27.80;98.30;;;;;;6259178;22;20327;-77
2023/06/26 05:28:30;;;;;;;10.65;4.57;;;27.60;98.30;;;;;;6259302;22;20011;-77
2023/06/26 05:31:00;;;;;;;7.20;4.70;;;28.20;97.20;;;;;;6248881;22;20008;-76
2023/06/26 05:33:27;;;;;;;13.20;4.18;;;29.10;96.30;;;;;;6286359;22;20023;-76
2023/06/26 05:35:53;;;;;;;8.07;4.00;;;28.90;95.90;;;;;;6248901;22;19999;-76
2023/06/26 05:38:20;;;;;;;8.98;3.60;;;28.70;96.10;;;;;;6248439;22;19996;-76
2023/06/26 05:40:46;;;;;;;8.45;4.03;;;29.70;94.70;;;;;;6249329;22;20020;-77
2023/06/26 05:43:12;;;;;;;6.20;3.75;;;29.40;94.50;;;;;;6304876;22;20502;-76
2023/06/26 05:45:38;;;;;;;6.85;2.80;;;29.90;93.80;;;;;;6290463;22;20043;-76
2023/06/26 05:48:04;;;;;;;6.88;3.88;;;30.60;93.00;;;;;;6279280;22;20007;-76
2023/06/26 05:50:31;;;;;;;8.77;3.70;;;29.40;92.90;;;;;;6289790;22;20353;-75
2023/06/26 05:52:57;;;;;;;7.32;3.42;;;27.80;94.20;;;;;;6253559;22;20481;-76
2023/06/26 05:55:23;;;;;;;8.23;2.70;;;27.20;95.40;;;;;;6254124;22;20007;-75
2023/06/26 05:57:51;;;;;;;10.00;3.55;;;27.20;95.80;;;;;;6315665;22;20000;-76
2023/06/26 06:00:17;;;;;;;7.50;3.42;;;28.50;94.70;;;;;;6254649;22;20090;-76
2023/06/26 06:02:43;;;;;;;8.73;3.33;;;29.30;93.50;;;;;;6254266;22;20314;-76
2023/06/26 06:05:09;;;;;;;7.20;4.30;;;30.10;92.50;;;;;;6318293;22;19999;-76
2023/06/26 06:07:36;;;;;;;4.50;2.30;;;30.40;91.50;;;;;;6291047;22;20007;-75
2023/06/26 06:10:03;;;;;;;10.40;3.47;;;31.60;90.10;;;;;;6280475;22;20422;-76
2023/06/26 06:12:29;;;;;;;8.63;3.00;;;31.40;90.10;;;;;;6254564;22;20335;-76
2023/06/26 06:14:56;;;;;;;6.30;2.83;;;33.00;86.00;;;;;;6280444;22;20037;-75
2023/06/26 06:17:22;;;;;;;10.20;2.60;;;34.20;83.80;;;;;;6289085;22;20022;-76
2023/06/26 06:19:48;;;;;;;4.82;2.72;;;35.60;79.10;;;;;;6288655;22;20046;-76
2023/06/26 06:22:16;;;;;;;16.60;3.95;;;35.20;77.30;;;;;;6253004;22;20026;-75
2023/06/26 06:24:42;;;;;;;3.60;2.40;;;34.30;76.70;;;;;;6280432;22;20023;-76
2023/06/26 06:27:08;;;;;;;6.00;2.20;;;33.70;76.80;;;;;;6254688;22;20003;-75
2023/06/26 06:29:34;;;;;;;10.15;3.78;;;33.10;77.80;;;;;;6317321;22;20310;-75
2023/06/26 06:31:59;;;;;;;8.13;3.28;;;33.50;77.40;;;;;;6289873;22;19999;-74
2023/06/26 06:34:25;;;;;;;8.45;3.22;;;34.20;77.20;;;;;;6254630;22;20034;-76
2023/06/26 06:36:52;;;;;;;11.95;4.00;;;33.30;77.80;;;;;;6289926;22;20429;-74
2023/06/26 06:39:17;;;;;;;9.70;2.72;;;32.40;78.40;;;;;;6254481;22;20007;-74
2023/06/26 06:41:43;;;;;;;8.07;3.05;;;33.20;77.60;;;;;;6253906;22;20311;-76
2023/06/26 06:44:10;;;;;;;7.80;2.35;;;33.40;77.50;;;;;;6279471;22;20382;-76
2023/06/26 06:46:36;;;;;;;6.57;2.00;;;34.40;75.50;;;;;;6316456;22;19996;-76
2023/06/26 06:49:03;;;;;;;9.57;2.13;;;34.80;75.40;;;;;;6278922;22;20035;-76
2023/06/26 06:51:28;;;;;;;6.68;3.63;;;34.80;74.00;;;;;;6280131;22;20475;-76
2023/06/26 06:53:54;;;;;;;8.73;3.42;;;36.00;72.50;;;;;;6290264;22;19995;-76
2023/06/26 06:56:20;;;;;;;7.35;2.05;;;36.00;71.90;;;;;;6253779;22;19991;-76
2023/06/26 06:58:46;;;;;;;5.85;2.17;;;36.30;71.40;;;;;;6253137;22;20030;-76
2023/06/26 07:01:13;;;;;;;5.55;1.95;;;34.70;72.30;;;;;;6254069;22;20000;-77
2023/06/26 07:03:39;;;;;;;7.20;2.53;;;36.30;71.60;;;;;;6254484;22;20002;-76
2023/06/26 07:06:05;;;;;;;10.38;2.60;;;36.80;69.30;;;;;;6254334;22;20007;-76
2023/06/26 07:08:31;;;;;;;8.27;2.72;;;36.70;69.30;;;;;;6279872;22;20387;-76
2023/06/26 07:10:57;;;;;;;4.82;2.33;;;37.30;68.90;;;;;;6315835;22;20034;-77
2023/06/26 07:13:24;;;;;;;9.23;2.03;;;37.30;68.40;;;;;;6317696;22;20003;-76
2023/06/26 07:15:49;;;;;;;4.22;2.10;;;37.20;67.40;;;;;;6253639;22;20472;-76
2023/06/26 07:18:15;;;;;;;8.45;2.05;;;37.60;67.20;;;;;;6317392;22;19999;-76
2023/06/26 07:20:41;;;;;;;5.40;2.53;;;36.80;67.10;;;;;;6254450;22;20011;-76
2023/06/26 07:23:08;;;;;;;10.10;2.25;;;37.50;66.20;;;;;;6289385;22;20070;-76
2023/06/26 07:25:34;;;;;;;4.78;2.22;;;36.90;66.20;;;;;;6290060;22;19999;-75
2023/06/26 07:28:00;;;;;;;3.45;1.38;;;37.00;65.70;;;;;;6289994;22;19999;-75
2023/06/26 07:30:26;;;;;;;4.93;1.98;;;36.70;66.60;;;;;;6317141;22;20006;-75
2023/06/26 07:32:51;;;;;;;3.97;1.98;;;36.20;67.00;;;;;;6253850;22;19999;-75
2023/06/26 07:35:17;;;;;;;5.70;2.63;;;35.20;67.90;;;;;;6279405;22;20003;-76
2023/06/26 07:37:43;;;;;;;3.17;2.17;;;34.90;68.00;;;;;;6278685;22;20007;-75
2023/06/26 07:40:10;;;;;;;6.38;1.90;;;34.00;69.10;;;;;;6289814;22;20018;-76
2023/06/26 07:42:36;;;;;;;8.23;2.65;;;32.90;70.30;;;;;;6253530;22;20007;-76
2023/06/26 07:45:09;;;;;;;7.63;2.45;;;31.60;72.50;;;;;;6317359;22;20309;-75
2023/06/26 07:47:36;;;;;;;6.93;2.75;;;31.10;72.90;;;;;;6315710;22;20325;-74
2023/06/26 07:50:02;;;;;;;7.22;2.17;;;31.30;73.10;;;;;;6316978;22;20007;-75
2023/06/26 07:52:28;;;;;;;2.15;1.42;;;29.90;74.50;;;;;;6279279;22;20004;-76
2023/06/26 07:54:53;;;;;;;5.68;1.80;;;28.80;75.70;;;;;;6316661;22;20006;-76
2023/06/26 07:57:20;;;;;;;3.42;1.13;;;30.80;75.60;;;;;;6253238;22;20303;-75
2023/06/26 07:59:46;;;;;;;4.15;2.22;;;33.10;72.60;;;;;;6253399;22;20015;-75
2023/06/26 08:02:12;;;;;;;5.70;2.25;;;34.40;69.60;;;;;;6289934;22;20002;-75
2023/06/26 08:04:38;;;;;;;5.50;1.88;;;34.70;68.60;;;;;;6279592;22;20023;-75
2023/06/26 08:07:04;;;;;;;4.53;1.90;;;36.40;66.30;;;;;;6289531;22;20007;-75
2023/06/26 08:09:30;;;;;;;5.57;1.48;;;38.40;64.60;;;;;;6289284;22;20007;-75
2023/06/26 08:11:56;;;;;;;15.85;3.78;;;38.40;63.90;;;;;;6283263;22;20003;-77
2023/06/26 08:14:23;;;;;;;2.88;1.30;;;38.30;64.40;;;;;;6253674;22;19995;-76
2023/06/26 08:16:49;;;;;;;10.88;3.53;;;37.90;64.20;;;;;;6279163;22;20038;-76
2023/06/26 08:19:16;;;;;;;1.95;1.25;;;35.90;65.50;;;;;;6253663;22;20003;-76
2023/06/26 08:21:43;;;;;;;2.67;1.38;;;33.60;66.60;;;;;;6279575;22;20003;-75
2023/06/26 08:24:09;;;;;;;6.50;1.92;;;33.00;67.60;;;;;;6279409;22;20422;-75
2023/06/26 08:26:35;;;;;;;2.75;1.80;;;31.90;70.30;;;;;;6279535;22;20000;-76
2023/06/26 08:29:07;;;;;;;2.45;1.58;;;32.60;69.90;;;;;;6253354;22;20002;-76
2023/06/26 08:31:34;;;;;;;6.38;1.33;;;33.70;68.90;;;;;;6279387;22;20014;-75
2023/06/26 08:34:01;;;;;;;5.25;1.70;;;33.30;67.10;;;;;;6279171;22;20082;-75
2023/06/26 08:36:26;;;;;;;6.57;2.03;;;33.40;67.20;;;;;;6279443;22;20034;-75
2023/06/26 08:38:53;;;;;;;3.38;1.58;;;33.50;67.00;;;;;;6289174;22;20679;-74
2023/06/26 08:41:19;;;;;;;5.80;1.55;;;33.20;66.30;;;;;;6253079;22;20015;-75
2023/06/26 08:43:45;;;;;;;4.57;1.40;;;33.90;66.10;;;;;;6253577;22;19991;-74
2023/06/26 08:46:11;;;;;;;3.90;1.83;;;35.50;64.30;;;;;;6253583;22;20031;-74
2023/06/26 08:48:38;;;;;;;1.58;1.17;;;37.00;61.90;;;;;;6278665;22;20022;-75
2023/06/26 08:51:09;;;;;;;2.38;1.63;;;38.50;60.80;;;;;;6289092;22;20052;-75
2023/06/26 08:54:11;;;;;;;3.38;0.70;;;39.40;60.30;;;;;;6278642;22;20000;-76
2023/06/26 08:56:42;;;;;;;3.03;1.05;;;39.20;60.00;;;;;;6215619;23;20537;-74
2023/06/26 08:59:13;;;;;;;1.17;0.90;;;39.40;59.30;;;;;;6267136;22;20015;-74
2023/06/26 09:01:41;;;;;;;5.18;1.58;;;39.80;59.30;;;;;;6278320;22;20014;-74
2023/06/26 09:04:07;;;;;;;3.83;1.63;;;40.50;58.70;;;;;;6252718;22;19995;-75
2023/06/26 09:06:33;;;;;;;1.75;0.90;;;40.90;57.40;;;;;;6278410;22;20427;-75
2023/06/26 09:08:59;;;;;;;2.38;0.75;;;38.90;57.90;;;;;;6277269;22;20007;-75
2023/06/26 09:11:25;;;;;;;6.10;1.15;;;38.90;58.60;;;;;;6312067;22;20013;-74
2023/06/26 09:13:52;;;;;;;1.25;1.00;;;37.90;58.60;;;;;;6276071;22;20460;-74
2023/06/26 09:16:17;;;;;;;2.47;1.02;;;37.20;59.00;;;;;;6288227;22;20007;-73
2023/06/26 09:18:46;;;;;;;1.00;0.90;;;37.50;60.10;;;;;;6277460;22;20156;-75
2023/06/26 09:21:14;;;;;;;5.10;1.52;;;37.20;60.70;;;;;;6314380;22;20007;-75
2023/06/26 09:23:41;;;;;;;4.93;1.25;;;38.10;59.50;;;;;;6252844;22;20039;-74
2023/06/26 09:26:07;;;;;;;3.53;1.23;;;35.90;60.00;;;;;;6288786;22;20004;-74
2023/06/26 09:28:34;;;;;;;4.90;1.08;;;34.30;61.60;;;;;;6314080;22;20010;-73
2023/06/26 09:31:04;;;;;;;4.25;1.73;;;33.10;63.30;;;;;;6315808;22;20002;-74
2023/06/26 09:33:35;;;;;;;4.95;1.33;;;34.00;62.80;;;;;;6278019;22;20338;-74
2023/06/26 09:36:02;;;;;;;1.92;1.20;;;32.50;63.90;;;;;;6277891;22;20426;-74
2023/06/26 09:38:28;;;;;;;1.52;0.70;;;33.10;64.50;;;;;;6252599;22;19996;-74
2023/06/26 09:40:54;;;;;;;1.30;1.20;;;35.00;63.20;;;;;;6279335;22;20019;-75
2023/06/26 09:43:20;;;;;;;5.05;1.73;;;36.50;62.00;;;;;;6279716;22;20018;-74
2023/06/26 09:45:46;;;;;;;1.52;0.88;;;37.80;60.00;;;;;;6254413;22;20023;-74
2023/06/26 09:48:14;;;;;;;2.88;1.30;;;38.00;60.20;;;;;;6253401;22;20044;-75
2023/06/26 09:50:42;;;;;;;4.07;1.33;;;36.60;59.00;;;;;;6289763;22;20460;-75
2023/06/26 09:53:15;;;;;;;10.05;1.35;;;36.40;59.80;;;;;;6279428;22;20099;-74
2023/06/26 09:55:43;;;;;;;1.83;0.75;;;36.00;59.10;;;;;;6279756;22;20334;-74
2023/06/26 09:58:14;;;;;;;2.22;0.77;;;36.40;56.30;;;;;;6289132;22;19995;-74
2023/06/26 10:00:41;;;;;;;2.63;0.82;;;36.20;56.80;;;;;;6279866;22;20014;-75
2023/06/26 10:03:08;;;;;;;2.58;1.33;;;36.20;56.60;;;;;;6253699;22;20003;-74
2023/06/26 10:05:34;;;;;;;3.75;1.27;;;35.00;57.00;;;;;;6279666;22;20003;-74
2023/06/26 10:08:02;;;;;;;1.17;0.93;;;34.50;58.40;;;;;;6278581;22;20026;-73
2023/06/26 10:10:28;;;;;;;1.98;1.00;;;33.60;60.30;;;;;;6253699;22;19999;-75
2023/06/26 10:13:03;;;;;;;2.42;0.93;;;34.20;60.00;;;;;;6279470;22;20004;-75
2023/06/26 10:15:30;;;;;;;0.65;0.47;;;33.70;59.50;;;;;;6279906;22;20003;-74
2023/06/26 10:17:57;;;;;;;3.45;0.73;;;33.30;59.40;;;;;;6289597;22;20000;-74
2023/06/26 10:20:24;;;;;;;8.68;1.60;;;34.00;59.00;;;;;;6290266;22;20060;-73
2023/06/26 10:22:50;;;;;;;2.63;1.35;;;34.80;59.00;;;;;;6279856;22;19995;-73
2023/06/26 10:25:21;;;;;;;4.78;1.45;;;34.80;58.40;;;;;;6254635;22;20004;-73
2023/06/26 10:27:56;;;;;;;5.30;1.08;;;34.20;60.10;;;;;;6290032;22;19995;-73
2023/06/26 10:30:28;;;;;;;1.02;0.90;;;34.80;58.90;;;;;;6254431;22;20418;-73
2023/06/26 10:32:54;;;;;;;2.60;0.70;;;34.70;56.80;;;;;;6290486;22;20003;-73
2023/06/26 10:35:21;;;;;;;1.92;0.98;;;34.50;56.50;;;;;;6254384;22;19991;-74
2023/06/26 10:37:49;;;;;;;5.00;0.90;;;34.90;55.30;;;;;;6289440;22;20375;-74
2023/06/26 10:40:39;;;;;;;2.85;0.80;;;33.80;55.60;;;;;;6254540;22;20045;-74
2023/06/26 10:43:08;;;;;;;2.13;0.90;;;33.00;56.40;;;;;;6318050;22;20323;-73
2023/06/26 10:45:35;;;;;;;33.50;6.57;;;32.70;56.50;;;;;;6254465;22;20087;-74
2023/06/26 10:48:01;;;;;;;1.80;0.60;;;32.20;55.20;;;;;;6279655;22;19999;-75
2023/06/26 10:50:30;;;;;;;2.25;0.90;;;32.00;56.50;;;;;;6278970;22;20041;-74
2023/06/26 10:53:20;;;;;;;6.13;0.73;;;32.20;56.40;;;;;;6279900;22;20517;-74
2023/06/26 10:55:58;;;;;;;3.90;1.10;;;31.20;57.50;;;;;;6279897;22;20007;-74
2023/06/26 10:58:33;;;;;;;3.67;0.77;;;31.80;57.10;;;;;;6279357;22;20006;-74
2023/06/26 11:01:11;;;;;;;0.80;0.80;;;31.70;56.40;;;;;;6289840;22;20011;-74
2023/06/26 11:03:39;;;;;;;4.72;0.93;;;32.00;55.30;;;;;;6290375;22;20322;-74
2023/06/26 11:06:12;;;;;;;2.60;0.85;;;32.20;53.50;;;;;;6254174;22;20003;-74
2023/06/26 11:09:01;;;;;;;1.10;0.38;;;31.80;55.40;;;;;;6317076;22;20006;-74
2023/06/26 11:11:52;;;;;;;3.90;0.80;;;31.70;54.70;;;;;;6285902;22;20011;-74
2023/06/26 11:14:19;;;;;;;3.95;1.52;;;31.60;55.10;;;;;;6317177;22;20025;-75
2023/06/26 11:16:45;;;;;;;0.77;0.75;;;31.40;54.50;;;;;;6290182;22;19995;-74
2023/06/26 11:19:13;;;;;;;1.60;0.85;;;31.80;54.50;;;;;;6289703;22;20035;-74
2023/06/26 11:21:39;;;;;;;1.75;1.00;;;31.80;54.50;;;;;;6279229;22;19999;-74
2023/06/26 11:24:07;;;;;;;2.10;1.20;;;31.70;53.60;;;;;;6279294;22;20102;-74
2023/06/26 11:26:42;;;;;;;2.15;0.88;;;32.10;55.40;;;;;;6279008;22;19999;-75
2023/06/26 11:29:09;;;;;;;2.55;0.65;;;32.30;55.20;;;;;;6289216;22;20003;-74
2023/06/26 11:31:37;;;;;;;2.60;1.20;;;32.40;55.30;;;;;;6317522;22;20296;-74
2023/06/26 11:34:11;;;;;;;3.38;1.15;;;32.30;57.10;;;;;;6290104;22;20082;-75
2023/06/26 11:36:38;;;;;;;2.40;1.08;;;31.60;56.10;;;;;;6289859;22;20079;-74
2023/06/26 11:39:06;;;;;;;3.92;1.02;;;31.50;56.30;;;;;;6289034;22;20466;-74
2023/06/26 11:41:33;;;;;;;5.43;0.77;;;31.60;56.40;;;;;;6311644;22;20330;-75
2023/06/26 11:44:03;;;;;;;1.35;0.90;;;31.70;57.30;;;;;;6278906;22;19999;-75
2023/06/26 11:46:30;;;;;;;1.95;0.75;;;31.70;54.80;;;;;;6279258;22;20033;-75
2023/06/26 11:48:56;;;;;;;3.38;0.95;;;31.00;55.90;;;;;;6253305;22;19999;-75
2023/06/26 11:51:22;;;;;;;3.28;1.13;;;30.70;56.70;;;;;;6278766;22;20086;-74
2023/06/26 11:53:48;;;;;;;2.35;0.90;;;30.20;56.70;;;;;;6289160;22;19998;-74
2023/06/26 11:56:16;;;;;;;2.80;0.85;;;30.10;59.10;;;;;;6279134;22;20097;-74
2023/06/26 11:59:04;;;;;;;3.30;0.70;;;29.60;56.40;;;;;;6316315;22;19996;-75
2023/06/26 12:01:37;;;;;;;2.25;0.98;;;29.90;57.40;;;;;;6278963;22;20064;-74
2023/06/26 12:04:05;;;;;;;3.42;1.40;;;29.80;56.30;;;;;;6279212;22;20034;-74
2023/06/26 12:06:33;;;;;;;1.45;0.90;;;29.60;58.70;;;;;;6253270;22;20049;-74
2023/06/26 12:09:03;;;;;;;1.38;0.88;;;29.60;60.10;;;;;;6278982;22;20000;-74
2023/06/26 12:11:30;;;;;;;5.95;0.90;;;29.60;56.80;;;;;;6312241;22;20049;-74
2023/06/26 12:13:56;;;;;;;2.60;0.80;;;29.60;58.40;;;;;;6253502;22;20007;-74
2023/06/26 12:16:22;;;;;;;2.92;1.25;;;29.10;55.90;;;;;;6279100;22;20040;-74
2023/06/26 12:18:48;;;;;;;1.98;0.93;;;29.10;57.10;;;;;;6278637;22;20066;-74
2023/06/26 12:21:43;;;;;;;3.25;1.00;;;29.30;56.00;;;;;;6253298;22;20023;-75
2023/06/26 12:24:13;;;;;;;3.13;0.90;;;29.60;56.10;;;;;;6279205;22;20525;-74
2023/06/26 12:26:43;;;;;;;2.85;0.85;;;29.60;57.60;;;;;;6278591;22;19996;-75
2023/06/26 12:29:11;;;;;;;0.80;0.80;;;29.50;59.00;;;;;;6252972;22;20039;-74
2023/06/26 12:31:44;;;;;;;3.97;1.02;;;29.70;57.20;;;;;;6253218;22;20022;-75
2023/06/26 12:34:12;;;;;;;1.85;0.57;;;30.10;58.00;;;;;;6288977;22;20057;-75
2023/06/26 12:36:50;;;;;;;0.65;0.65;;;29.70;58.70;;;;;;6252891;22;20024;-74
2023/06/26 12:39:20;;;;;;;2.30;0.80;;;30.00;56.90;;;;;;6278459;22;20497;-74
2023/06/26 12:41:48;;;;;;;1.05;0.50;;;30.30;57.80;;;;;;6278401;22;20015;-74
2023/06/26 12:44:21;;;;;;;2.95;0.63;;;29.70;57.80;;;;;;6253099;22;20003;-74
2023/06/26 12:46:53;;;;;;;2.78;1.15;;;29.20;59.60;;;;;;6289579;22;19999;-74
2023/06/26 12:49:20;;;;;;;9.50;0.75;;;28.90;62.70;;;;;;6278953;22;20384;-74